This is the latest recevied weather packets stored in our database for station/object WX9WTF. If no packets are shown the sender has not sent any weather packets the latest 10 day(s).
| Time | Temp. | Humidity | Pressure | Rain* | Wind** | Luminosity | Snow |
|---|---|---|---|---|---|---|---|
| 1777919214 | 26.67° C | 47% | 1003.8 hPa | 0 mm | - | 893 W/m² | - |
| 1777918306 | 25.56° C | 49% | 1004 hPa | 0 mm | - | 892 W/m² | - |
| 1777918005 | 26.11° C | 50% | 1003.8 hPa | 0 mm | - | 851 W/m² | - |
| 1777917704 | 25.56° C | 51% | 1004.1 hPa | 0 mm | - | 751 W/m² | - |
| 1777917097 | 25.56° C | 51% | 1004.2 hPa | 0 mm | - | 708 W/m² | - |
| 1777916189 | 25.56° C | 57% | 1004.1 hPa | 0 mm | - | 798 W/m² | - |
| 1777915886 | 25° C | 54% | 1003.9 hPa | 0 mm | - | 880 W/m² | - |
| 1777915582 | 25.56° C | 48% | 1004 hPa | 0 mm | - | 869 W/m² | - |
| 1777914369 | 25° C | 55% | 1004.4 hPa | 0 mm | - | 854 W/m² | - |
| 1777914067 | 25° C | 49% | 1004.4 hPa | 0 mm | - | 845 W/m² | - |
| 1777911032 | 22.78° C | 54% | 1004.9 hPa | 0 mm | - | 763 W/m² | - |
| 1777907089 | 21.67° C | 58% | 1004.9 hPa | 0 mm | - | 667 W/m² | - |
| 1777905574 | 20° C | 59% | 1005 hPa | 0 mm | - | 186 W/m² | - |
| 1777905271 | 21.11° C | 57% | 1005.1 hPa | 0 mm | - | 158 W/m² | - |
| 1777904968 | 21.11° C | 58% | 1005 hPa | 0 mm | - | 631 W/m² | - |
| 1777904362 | 18.89° C | 63% | 1005 hPa | 0 mm | - | 124 W/m² | - |
| 1777904059 | 18.89° C | 61% | 1004.9 hPa | 0 mm | - | 87 W/m² | - |
| 1777903756 | 19.44° C | 61% | 1005.1 hPa | 0 mm | - | 131 W/m² | - |
| 1777902239 | 18.89° C | 61% | 1005 hPa | 0 mm | - | 121 W/m² | - |
| 1777901937 | 19.44° C | 61% | 1005 hPa | 0 mm | - | 111 W/m² | - |
| 1777901635 | 19.44° C | 59% | 1005 hPa | 0 mm | - | 232 W/m² | - |
| 1777901332 | 20° C | 59% | 1005.1 hPa | 0 mm | - | 374 W/m² | - |
| 1777901029 | 19.44° C | 62% | 1005 hPa | 0 mm | - | 316 W/m² | - |
| 1777900727 | 18.33° C | 63% | 1005.1 hPa | 0 mm | - | 264 W/m² | - |
| 1777900423 | 18.33° C | 63% | 1004.9 hPa | 0 mm | - | 79 W/m² | - |
* Rain latest hour (hover to see other rain measurements)
** Current wind speed in m/s (hover to see current wind gust speed)